Accueil
METAR-TAF:

METAR-TAF

Aéroports :

Aéroport de Montpellier-Méditerranée

Montpellier, France

latitude: 43-35N, longitude: 003-58E, altitude: 5 m

Observation

Le bulletin a été fait il y a 38 minutes, à 11:00 UTC
Vent 5 kt de nord/nord-ouest, variant entre ouest/nord-ouest et nord
Température 10°C
Humidité 50%
Pression 1017 hPa
Visibilité 10 km ou plus
Quelques nuages à une hauteur de 4400 ft

METAR: LFMT 181100Z AUTO 34005KT 300V010 9999 FEW044 10/00 Q1017 NOSIG

Heure: 12:38 (11:38 UTC)

Prévision

Le bulletin a été fait il y a 3 heures et 38 minutes, à 08:00 UTC
Prévision valable du 18 à 09 UTC au 19 à 09 UTC
Vent 12 kt de ouest/nord-ouest
Visibilité 10 km ou plus
pas de nuages en-dessous de 1500 mètres et pas de cumulonimbus.
Evoluant progressivement
du 18 à 18 UTC au 18 à 20 UTC
Vent 2 kt de direction variable

TAF: LFMT 180800Z 1809/1909 30012KT CAVOK BECMG 1818/1820 VRB02KT

Observations et prévisions météorologiques de plus de 4000 aéroports (messages METAR et TAF).

Les stations disponibles sont représentées par des disques jaunes et rouges sur la carte.

Passer la souris dessus pour voir le nom de la station.

Cliquer dessus pour voir les observations et prévisions météorologiques.

Pour changer de carte: cliquez sur les boutons verts avec une croix noire pour zoomer, sur le bouton vert avec un tiret pour effectuer un zoom arrière, ou sur les flèches vertes pour les cartes adjacentes.


METAR-TAF: